createdAt,value
2022-09-20T00:01:28.623Z,74.67
2022-09-20T00:03:57.554Z,75.88
2022-09-20T00:06:27.180Z,74.86
2022-09-20T00:08:54.213Z,75.47
2022-09-20T00:11:23.659Z,75.82
2022-09-20T00:13:52.972Z,75.49
2022-09-20T00:16:24.467Z,75.98
2022-09-20T00:18:52.456Z,76.20
2022-09-20T00:21:22.225Z,76.02
2022-09-20T00:23:48.842Z,76.55
2022-09-20T00:26:15.461Z,77.37
2022-09-20T00:28:42.111Z,77.67
2022-09-20T00:31:08.636Z,78.04
2022-09-20T00:33:53.811Z,78.56
2022-09-20T00:36:20.724Z,78.61
2022-09-20T00:38:47.497Z,78.81
2022-09-20T00:41:14.272Z,79.20
2022-09-20T00:43:44.897Z,78.85
2022-09-20T00:46:24.553Z,79.06
2022-09-20T00:48:56.099Z,80.02
2022-09-20T00:51:29.796Z,79.52
2022-09-20T00:53:58.725Z,79.52
2022-09-20T00:56:29.583Z,79.27
2022-09-20T00:59:30.191Z,80.35
2022-09-20T01:02:03.058Z,79.19
2022-09-20T01:04:30.334Z,79.55
2022-09-20T01:07:01.516Z,78.87
2022-09-20T01:09:28.114Z,79.59
2022-09-20T01:11:57.688Z,77.78
2022-09-20T01:14:26.511Z,77.32
2022-09-20T01:16:56.091Z,77.88
2022-09-20T01:19:43.330Z,76.92
2022-09-20T01:22:25.964Z,75.29
2022-09-20T01:25:16.093Z,75.53
2022-09-20T01:27:45.652Z,75.45
2022-09-20T01:30:17.488Z,76.45
2022-09-20T01:33:11.333Z,76.96
2022-09-20T01:35:41.422Z,76.87
2022-09-20T01:38:23.304Z,76.81
2022-09-20T01:40:52.686Z,75.16
2022-09-20T01:43:40.864Z,75.72
2022-09-20T01:46:29.916Z,76.56
2022-09-20T01:49:11.088Z,75.68
2022-09-20T01:52:03.049Z,75.22
2022-09-20T01:54:58.868Z,75.41
2022-09-20T01:57:53.299Z,75.30
2022-09-20T02:00:34.929Z,75.06
2022-09-20T02:03:29.277Z,74.75
2022-09-20T02:06:17.738Z,73.23
2022-09-20T02:09:09.478Z,73.38
2022-09-20T02:11:50.925Z,73.65
2022-09-20T02:14:45.905Z,74.03
2022-09-20T02:17:32.749Z,74.45
2022-09-20T02:20:17.461Z,74.71
2022-09-20T02:22:50.133Z,75.39
2022-09-20T02:25:41.374Z,75.79
2022-09-20T02:28:11.031Z,76.30
2022-09-20T02:31:12.878Z,77.43
2022-09-20T02:34:00.832Z,78.95
2022-09-20T02:36:38.141Z,79.76
2022-09-20T02:39:16.398Z,79.55
2022-09-20T02:41:57.762Z,80.22
2022-09-20T02:44:59.125Z,80.67
2022-09-20T02:47:33.860Z,81.85
2022-09-20T02:50:26.919Z,81.71
2022-09-20T02:53:12.019Z,82.56
2022-09-20T02:56:15.520Z,81.64
2022-09-20T02:59:10.218Z,82.14
2022-09-20T03:02:09.054Z,81.12
2022-09-20T03:04:53.521Z,81.64
2022-09-20T03:07:37.784Z,81.90
2022-09-20T03:10:25.666Z,82.01
2022-09-20T03:13:10.998Z,81.47
2022-09-20T03:15:45.655Z,81.21
2022-09-20T03:18:16.737Z,80.92
2022-09-20T03:21:05.326Z,80.90
2022-09-20T03:24:02.689Z,80.41
2022-09-20T03:26:43.516Z,79.45
2022-09-20T03:29:43.037Z,79.45
2022-09-20T03:32:20.623Z,79.25
2022-09-20T03:34:56.256Z,79.33
2022-09-20T03:37:58.392Z,79.38
2022-09-20T03:40:46.387Z,79.34
2022-09-20T03:43:40.776Z,79.25
2022-09-20T03:46:36.760Z,78.19
2022-09-20T03:49:32.041Z,78.33
2022-09-20T03:52:15.594Z,76.62
2022-09-20T03:55:04.873Z,73.73
2022-09-20T03:57:52.704Z,73.89
2022-09-20T04:01:04.183Z,74.95
2022-09-20T04:03:44.672Z,74.63
2022-09-20T04:06:33.309Z,74.00
2022-09-20T04:09:08.837Z,74.87
2022-09-20T04:11:51.716Z,74.46
2022-09-20T04:14:43.391Z,74.79
2022-09-20T04:17:39.309Z,76.00
2022-09-20T04:20:32.526Z,76.29
2022-09-20T04:23:05.560Z,76.49
2022-09-20T04:25:44.453Z,76.99
2022-09-20T04:28:21.716Z,77.48
2022-09-20T04:30:55.299Z,78.07
2022-09-20T04:33:30.132Z,77.97
2022-09-20T04:36:28.716Z,78.74
2022-09-20T04:39:33.127Z,79.23
2022-09-20T04:42:32.870Z,80.70
2022-09-20T04:46:00.894Z,81.81
2022-09-20T04:48:36.468Z,82.13
2022-09-20T04:51:21.442Z,82.09
2022-09-20T04:53:57.042Z,82.03
2022-09-20T04:56:41.440Z,82.60
2022-09-20T04:59:10.393Z,82.87
2022-09-20T05:02:03.448Z,83.16
2022-09-20T05:05:04.759Z,83.27
2022-09-20T05:08:21.148Z,83.35
2022-09-20T05:11:12.657Z,83.91
2022-09-20T05:14:02.417Z,83.96
2022-09-20T05:16:55.397Z,83.72
2022-09-20T05:19:33.925Z,84.09
2022-09-20T05:22:26.084Z,84.21
2022-09-20T05:25:07.811Z,84.03
2022-09-20T05:27:43.462Z,84.15
2022-09-20T05:30:34.533Z,85.04
2022-09-20T05:33:43.663Z,85.69
2022-09-20T05:36:23.479Z,86.08
2022-09-20T05:39:09.693Z,87.12
2022-09-20T05:41:39.181Z,87.60
2022-09-20T05:44:43.152Z,87.03
2022-09-20T05:47:24.886Z,87.08
2022-09-20T05:50:29.792Z,85.82
2022-09-20T05:53:17.341Z,85.71
2022-09-20T05:55:53.176Z,84.75
2022-09-20T05:58:50.778Z,85.01
2022-09-20T06:01:26.775Z,85.01
2022-09-20T06:04:14.325Z,84.40
2022-09-20T06:07:02.552Z,84.14
2022-09-20T06:10:00.113Z,84.68
2022-09-20T06:12:37.966Z,83.69
2022-09-20T06:15:48.698Z,81.91
2022-09-20T06:18:29.317Z,81.41
2022-09-20T06:21:32.968Z,81.70
2022-09-20T06:24:01.449Z,81.97
2022-09-20T06:26:34.309Z,83.35
2022-09-20T06:29:05.887Z,83.56
2022-09-20T06:31:32.741Z,82.82
2022-09-20T06:34:04.474Z,83.00
2022-09-20T06:36:52.106Z,82.77
2022-09-20T06:39:50.336Z,81.84
2022-09-20T06:42:23.338Z,83.45
2022-09-20T06:44:53.299Z,83.95
2022-09-20T06:47:19.840Z,83.40
2022-09-20T06:49:47.888Z,83.80
2022-09-20T06:52:16.852Z,83.12
2022-09-20T06:54:46.128Z,81.83
2022-09-20T06:57:16.390Z,81.57
2022-09-20T06:59:42.994Z,81.20
2022-09-20T07:02:12.002Z,81.14
2022-09-20T07:04:38.489Z,79.67
2022-09-20T07:07:09.466Z,79.98
2022-09-20T07:09:36.572Z,79.82
2022-09-20T07:12:03.118Z,78.97
2022-09-20T07:14:29.975Z,78.53
2022-09-20T07:16:56.763Z,78.53
2022-09-20T07:19:23.508Z,78.95
2022-09-20T07:21:50.046Z,80.28
2022-09-20T07:24:16.716Z,82.67
2022-09-20T07:27:01.009Z,83.52
2022-09-20T07:29:28.247Z,84.39
2022-09-20T07:31:56.141Z,83.62
2022-09-20T07:34:22.633Z,83.61
2022-09-20T07:36:50.240Z,83.70
2022-09-20T07:39:17.455Z,84.27
2022-09-20T07:41:50.623Z,83.70
2022-09-20T07:44:21.539Z,83.66
2022-09-20T07:46:59.384Z,83.84
2022-09-20T07:49:29.921Z,81.80
2022-09-20T07:51:56.782Z,81.17
2022-09-20T07:54:23.508Z,79.83
2022-09-20T07:56:50.335Z,80.39
2022-09-20T07:59:17.109Z,79.39
2022-09-20T08:01:44.181Z,79.28
2022-09-20T08:04:11.199Z,79.81
2022-09-20T08:06:43.054Z,81.07
2022-09-20T08:09:11.473Z,78.27
2022-09-20T08:11:39.415Z,77.92
2022-09-20T08:14:17.873Z,78.15
2022-09-20T08:16:47.692Z,78.74
2022-09-20T08:19:22.852Z,77.91
2022-09-20T08:21:51.047Z,78.09
2022-09-20T08:24:17.677Z,78.32
2022-09-20T08:26:44.773Z,78.00
2022-09-20T08:29:11.674Z,78.21
2022-09-20T08:31:42.153Z,78.06
2022-09-20T08:34:11.479Z,77.58
2022-09-20T08:36:49.962Z,78.56
2022-09-20T08:42:12.884Z,76.18
2022-09-20T08:45:05.231Z,76.11
2022-09-20T08:47:36.091Z,76.89
2022-09-20T08:50:09.789Z,77.08
2022-09-20T08:52:40.038Z,77.75
2022-09-20T08:55:36.494Z,77.28
2022-09-20T08:58:08.234Z,78.86
2022-09-20T09:00:36.800Z,78.93
2022-09-20T09:03:12.377Z,79.76
2022-09-20T09:05:45.141Z,79.51
2022-09-20T09:08:21.212Z,78.41
2022-09-20T09:10:57.514Z,77.67
2022-09-20T09:13:36.137Z,77.77
2022-09-20T09:16:10.730Z,76.19
2022-09-20T09:18:40.681Z,75.55
2022-09-20T09:21:10.374Z,75.11
2022-09-20T09:23:45.934Z,76.41
2022-09-20T09:26:21.789Z,72.87
2022-09-20T09:29:23.564Z,71.67
2022-09-20T09:31:52.864Z,72.07
2022-09-20T09:34:30.941Z,71.59
2022-09-20T09:36:58.841Z,68.57
2022-09-20T09:39:33.814Z,65.72
2022-09-20T09:42:01.018Z,66.71
2022-09-20T09:44:33.994Z,66.87
2022-09-20T09:47:01.298Z,68.06
2022-09-20T09:49:37.175Z,68.60
2022-09-20T09:52:06.615Z,68.59
2022-09-20T09:54:39.216Z,67.16
2022-09-20T09:57:20.889Z,68.86
2022-09-20T09:59:52.620Z,68.18
2022-09-20T10:02:48.034Z,68.94
2022-09-20T10:05:38.022Z,68.27
2022-09-20T10:08:28.984Z,66.69
2022-09-20T10:11:24.944Z,66.33
2022-09-20T10:14:05.520Z,65.42
2022-09-20T10:17:04.721Z,66.58
2022-09-20T10:19:43.188Z,67.16
2022-09-20T10:22:35.080Z,65.83
2022-09-20T10:25:25.108Z,66.63
2022-09-20T10:28:15.838Z,63.28
2022-09-20T10:31:24.934Z,66.69
2022-09-20T10:34:07.453Z,62.53
2022-09-20T10:36:57.240Z,62.06
2022-09-20T10:39:33.407Z,63.77
2022-09-20T10:42:42.150Z,63.74
2022-09-20T10:45:59.594Z,64.04
2022-09-20T10:48:32.467Z,64.27
2022-09-20T10:51:12.952Z,64.24
2022-09-20T10:53:59.946Z,65.27
2022-09-20T10:56:26.526Z,64.56
2022-09-20T10:59:13.125Z,64.50
2022-09-20T11:02:15.655Z,64.27
2022-09-20T11:05:02.421Z,62.02
2022-09-20T11:07:56.572Z,62.52
2022-09-20T11:10:31.211Z,62.07
2022-09-20T11:13:05.899Z,62.08
2022-09-20T11:15:44.441Z,61.16
2022-09-20T11:18:25.401Z,62.62
2022-09-20T11:21:21.835Z,61.48
2022-09-20T11:24:02.378Z,60.27
2022-09-20T11:26:36.849Z,61.12
2022-09-20T11:29:15.812Z,61.35
2022-09-20T11:31:48.969Z,62.09
2022-09-20T11:34:15.337Z,61.37
2022-09-20T11:36:58.831Z,61.87
2022-09-20T11:39:47.162Z,62.50
2022-09-20T11:42:20.771Z,63.52
2022-09-20T11:44:47.360Z,63.27
2022-09-20T11:47:54.871Z,63.95
2022-09-20T11:50:51.038Z,64.81
2022-09-20T11:53:42.948Z,64.96
2022-09-20T11:56:27.017Z,65.08
2022-09-20T11:58:59.556Z,63.57
2022-09-20T12:01:32.014Z,65.22
2022-09-20T12:04:31.666Z,64.92
2022-09-20T12:07:25.939Z,65.64
2022-09-20T12:09:57.272Z,67.04
2022-09-20T12:12:34.063Z,66.41
2022-09-20T12:15:02.955Z,64.22
2022-09-20T12:17:47.771Z,64.26
2022-09-20T12:20:35.360Z,61.98
2022-09-20T12:23:46.441Z,62.33
2022-09-20T12:26:24.234Z,64.21
2022-09-20T12:28:56.460Z,62.41
2022-09-20T12:31:26.578Z,62.26
2022-09-20T12:34:16.088Z,63.19
2022-09-20T12:37:10.325Z,64.53
2022-09-20T12:39:39.356Z,62.97
2022-09-20T12:42:28.091Z,63.25
2022-09-20T12:45:05.403Z,62.04
2022-09-20T12:47:37.462Z,62.42
2022-09-20T12:50:33.864Z,62.55
2022-09-20T12:53:06.394Z,63.90
2022-09-20T12:55:41.170Z,64.60
2022-09-20T12:58:19.632Z,64.72
2022-09-20T13:00:51.160Z,64.17
2022-09-20T13:03:38.825Z,64.77
2022-09-20T13:06:09.572Z,64.14
2022-09-20T13:08:54.472Z,64.25
2022-09-20T13:11:24.853Z,64.07
2022-09-20T13:14:12.356Z,65.38
2022-09-20T13:16:53.950Z,63.21
2022-09-20T13:19:28.677Z,64.21
2022-09-20T13:22:23.109Z,62.77
2022-09-20T13:24:55.029Z,62.73
2022-09-20T13:27:25.996Z,63.90
2022-09-20T13:29:53.335Z,63.63
2022-09-20T13:32:24.409Z,63.80
2022-09-20T13:35:06.661Z,64.80
2022-09-20T13:37:34.946Z,63.76
2022-09-20T13:40:03.630Z,63.52
2022-09-20T13:42:33.618Z,63.73
2022-09-20T13:45:00.930Z,63.32
2022-09-20T13:47:29.764Z,62.90
2022-09-20T13:50:19.608Z,64.01
2022-09-20T13:52:52.892Z,63.21
2022-09-20T13:55:33.200Z,65.04
2022-09-20T13:58:07.506Z,66.16
2022-09-20T14:00:37.793Z,66.29
2022-09-20T14:03:04.790Z,65.95
2022-09-20T14:05:31.995Z,65.80
2022-09-20T14:08:00.670Z,66.20
2022-09-20T14:10:32.049Z,66.16
2022-09-20T14:13:02.215Z,63.50
2022-09-20T14:15:39.203Z,64.15
2022-09-20T14:18:07.817Z,62.10
2022-09-20T14:20:34.688Z,61.97
2022-09-20T14:23:01.433Z,62.43
2022-09-20T14:25:30.984Z,62.61
2022-09-20T14:28:19.866Z,63.68
2022-09-20T14:30:50.772Z,63.79
2022-09-20T14:33:22.446Z,64.06
2022-09-20T14:35:51.443Z,64.37
2022-09-20T14:38:26.423Z,63.55
2022-09-20T14:40:53.110Z,63.65
2022-09-20T14:43:34.705Z,61.84
2022-09-20T14:46:19.881Z,63.71
2022-09-20T14:48:46.468Z,63.31
2022-09-20T14:51:16.281Z,66.44
2022-09-20T14:53:44.404Z,62.71
2022-09-20T14:56:14.600Z,63.71
2022-09-20T14:59:04.510Z,63.78
2022-09-20T15:01:31.315Z,64.34
2022-09-20T15:03:58.540Z,65.36
2022-09-20T15:06:25.995Z,64.29
2022-09-20T15:08:52.433Z,63.68
2022-09-20T15:11:19.754Z,67.58
2022-09-20T15:13:46.503Z,63.79
2022-09-20T15:16:14.641Z,63.10
2022-09-20T15:18:43.017Z,64.00
2022-09-20T15:21:13.302Z,64.32
2022-09-20T15:23:40.555Z,63.74
2022-09-20T15:26:10.497Z,64.90
2022-09-20T15:28:37.035Z,65.31
2022-09-20T15:31:03.485Z,64.22
2022-09-20T15:33:34.323Z,63.47
2022-09-20T15:36:03.996Z,61.77
2022-09-20T15:38:30.788Z,60.36
2022-09-20T15:41:00.798Z,59.01
2022-09-20T15:43:28.420Z,60.21
2022-09-20T15:45:57.999Z,58.97
2022-09-20T15:48:26.097Z,59.90
2022-09-20T15:51:01.938Z,62.32
2022-09-20T15:53:36.325Z,61.97
2022-09-20T15:56:05.064Z,62.15
2022-09-20T15:58:36.221Z,63.38
2022-09-20T16:01:08.545Z,63.92
2022-09-20T16:03:36.571Z,64.12
2022-09-20T16:06:08.107Z,63.61
2022-09-20T16:08:40.262Z,65.09
2022-09-20T16:11:08.309Z,65.39
2022-09-20T16:13:38.673Z,63.80
2022-09-20T16:16:06.837Z,63.58
2022-09-20T16:18:54.274Z,63.15
2022-09-20T16:21:21.125Z,64.90
2022-09-20T16:23:56.594Z,63.05
2022-09-20T16:26:48.946Z,63.67
2022-09-20T16:29:16.856Z,64.48
2022-09-20T16:31:47.669Z,62.84
2022-09-20T16:34:22.453Z,63.82
2022-09-20T16:36:51.173Z,65.81
2022-09-20T16:39:21.085Z,65.21
2022-09-20T16:41:48.976Z,67.55
2022-09-20T16:44:16.244Z,66.84
2022-09-20T16:46:44.490Z,66.16
2022-09-20T16:49:12.970Z,67.18
2022-09-20T16:51:41.750Z,67.27
2022-09-20T16:54:12.683Z,66.88
2022-09-20T16:56:45.019Z,66.83
2022-09-20T16:59:12.994Z,66.93
2022-09-20T17:01:40.449Z,65.92
2022-09-20T17:04:08.186Z,67.99
2022-09-20T17:06:36.998Z,66.79
2022-09-20T17:09:05.024Z,66.19
2022-09-20T17:11:33.230Z,67.63
2022-09-20T17:14:00.071Z,67.19
2022-09-20T17:16:29.924Z,66.39
2022-09-20T17:19:07.358Z,67.53
2022-09-20T17:21:36.592Z,68.38
2022-09-20T17:24:05.845Z,68.06
2022-09-20T17:26:35.778Z,66.97
2022-09-20T17:29:04.136Z,66.01
2022-09-20T17:31:35.779Z,67.59
2022-09-20T17:34:07.131Z,67.92
2022-09-20T17:36:45.658Z,68.23
2022-09-20T17:39:13.757Z,68.64
2022-09-20T17:41:41.404Z,68.56
2022-09-20T17:44:09.855Z,68.62
2022-09-20T17:46:37.951Z,68.13
2022-09-20T17:49:06.066Z,69.03
2022-09-20T17:51:37.020Z,68.60
2022-09-20T17:54:04.290Z,68.40
2022-09-20T17:56:31.332Z,68.86
2022-09-20T17:59:00.082Z,68.60
2022-09-20T18:01:28.755Z,68.48
2022-09-20T18:03:57.596Z,68.78
2022-09-20T18:06:26.735Z,68.46
2022-09-20T18:08:58.904Z,68.66
2022-09-20T18:11:36.721Z,68.51
2022-09-20T18:14:04.727Z,68.41
2022-09-20T18:16:33.192Z,69.49
2022-09-20T18:19:02.996Z,69.49
2022-09-20T18:21:31.155Z,68.58
2022-09-20T18:23:59.139Z,68.72
2022-09-20T18:26:28.987Z,68.19
2022-09-20T18:29:09.444Z,69.14
2022-09-20T18:31:43.165Z,70.36
2022-09-20T18:34:34.101Z,69.67
2022-09-20T18:37:03.827Z,69.79
2022-09-20T18:39:37.366Z,69.35
2022-09-20T18:42:06.617Z,68.81
2022-09-20T18:44:33.837Z,68.77
2022-09-20T18:47:03.812Z,68.49
2022-09-20T18:49:30.768Z,68.96
2022-09-20T18:51:57.654Z,69.03
2022-09-20T18:54:24.395Z,69.50
2022-09-20T18:56:51.569Z,70.42
2022-09-20T18:59:20.739Z,69.69
2022-09-20T19:01:50.323Z,69.90
2022-09-20T19:04:57.702Z,69.54
2022-09-20T19:07:27.151Z,69.94
2022-09-20T19:09:59.632Z,69.38
2022-09-20T19:12:39.920Z,70.15
2022-09-20T19:15:16.003Z,70.44
2022-09-20T19:17:53.568Z,70.99
2022-09-20T19:20:42.504Z,69.86
2022-09-20T19:23:36.714Z,69.83
2022-09-20T19:26:24.692Z,70.64
2022-09-20T19:28:57.127Z,71.23
2022-09-20T19:31:23.786Z,71.18
2022-09-20T19:33:53.904Z,70.27
2022-09-20T19:36:24.780Z,71.38
2022-09-20T19:39:13.148Z,71.39
2022-09-20T19:42:07.197Z,71.41
2022-09-20T19:44:33.928Z,71.16
2022-09-20T19:47:19.109Z,71.03
2022-09-20T19:49:48.885Z,69.97
2022-09-20T19:52:18.645Z,70.21
2022-09-20T19:54:46.867Z,70.38
2022-09-20T19:57:43.135Z,68.71
2022-09-20T20:00:15.751Z,68.83
2022-09-20T20:02:45.994Z,67.78
2022-09-20T20:05:20.441Z,66.77
2022-09-20T20:08:04.484Z,67.24
2022-09-20T20:10:45.908Z,68.49
2022-09-20T20:13:37.502Z,70.50
2022-09-20T20:16:14.307Z,71.04
2022-09-20T20:18:46.812Z,71.49
2022-09-20T20:21:38.798Z,71.59
2022-09-20T20:24:24.580Z,71.70
2022-09-20T20:26:51.315Z,71.85
2022-09-20T20:29:17.921Z,72.64
2022-09-20T20:31:44.418Z,73.15
2022-09-20T20:34:13.756Z,73.37
2022-09-20T20:36:40.199Z,73.89
2022-09-20T20:39:06.869Z,74.15
2022-09-20T20:41:33.389Z,72.87
2022-09-20T20:44:00.107Z,71.80
2022-09-20T20:46:26.944Z,71.49
2022-09-20T20:48:53.631Z,71.50
2022-09-20T20:51:22.154Z,72.02
2022-09-20T20:53:54.359Z,72.64
2022-09-20T20:56:22.976Z,73.09
2022-09-20T20:58:57.654Z,72.91
2022-09-20T21:01:30.056Z,72.99
2022-09-20T21:03:58.373Z,73.03
2022-09-20T21:06:27.829Z,72.33
2022-09-20T21:08:54.446Z,70.65
2022-09-20T21:11:23.780Z,70.62
2022-09-20T21:13:57.894Z,70.59
2022-09-20T21:16:26.646Z,71.39
2022-09-20T21:18:53.120Z,71.35
2022-09-20T21:21:39.455Z,71.47
2022-09-20T21:24:07.329Z,70.55
2022-09-20T21:26:35.505Z,70.08
2022-09-20T21:29:03.441Z,70.38
2022-09-20T21:31:32.757Z,69.69
2022-09-20T21:33:59.626Z,70.63
2022-09-20T21:36:30.143Z,69.74
2022-09-20T21:38:56.962Z,69.37
2022-09-20T21:41:34.750Z,70.02
2022-09-20T21:44:03.411Z,70.45
2022-09-20T21:46:35.113Z,70.50
2022-09-20T21:49:05.910Z,71.03
2022-09-20T21:51:33.286Z,71.78
2022-09-20T21:54:01.539Z,72.07
2022-09-20T21:56:33.465Z,72.38
2022-09-20T21:59:02.043Z,72.90
2022-09-20T22:01:29.650Z,73.35
2022-09-20T22:04:00.124Z,73.76
2022-09-20T22:06:29.259Z,74.26
2022-09-20T22:09:01.975Z,74.60
2022-09-20T22:11:31.110Z,75.55
2022-09-20T22:14:01.436Z,76.19
2022-09-20T22:16:30.184Z,76.90
2022-09-20T22:18:57.249Z,76.99
2022-09-20T22:21:26.727Z,77.27
2022-09-20T22:23:58.587Z,77.75
2022-09-20T22:26:28.560Z,78.12
2022-09-20T22:28:55.038Z,78.31
2022-09-20T22:31:23.993Z,77.94
2022-09-20T22:33:52.972Z,78.95
2022-09-20T22:36:22.089Z,79.15
2022-09-20T22:38:48.975Z,79.26
2022-09-20T22:41:17.534Z,79.53
2022-09-20T22:43:44.397Z,79.50
2022-09-20T22:46:20.164Z,79.58
2022-09-20T22:48:48.000Z,79.17
2022-09-20T22:51:22.887Z,79.31
2022-09-20T22:53:52.306Z,80.24
2022-09-20T22:56:29.278Z,80.27
2022-09-20T22:59:02.977Z,80.36
2022-09-20T23:01:31.981Z,81.08
2022-09-20T23:04:20.173Z,81.01
2022-09-20T23:06:56.704Z,81.48
2022-09-20T23:09:25.220Z,81.45
2022-09-20T23:11:51.850Z,81.65
2022-09-20T23:14:20.208Z,82.39
2022-09-20T23:16:47.704Z,82.71
2022-09-20T23:19:14.443Z,83.06
2022-09-20T23:21:42.655Z,83.07
2022-09-20T23:24:12.485Z,83.46
2022-09-20T23:26:40.046Z,82.80
2022-09-20T23:29:09.284Z,82.61
2022-09-20T23:31:37.118Z,82.92
2022-09-20T23:34:05.863Z,83.36
2022-09-20T23:36:38.012Z,83.08
2022-09-20T23:39:06.956Z,83.41
2022-09-20T23:41:33.990Z,83.28
2022-09-20T23:44:00.717Z,83.27
2022-09-20T23:46:27.493Z,83.18
2022-09-20T23:48:54.437Z,83.33
2022-09-20T23:51:23.580Z,83.50
2022-09-20T23:53:51.655Z,83.13
2022-09-20T23:56:19.164Z,83.55
2022-09-20T23:58:46.139Z,83.03
